Highland Lakes, NJ (07422)

7:43 AM EDT on August 31, 2015 (GMT -0400)
Barry Lakes | | Change Station
CLOSE
Current Station
Personal Weather Station
Location: Highland Lks., NJ
Elevation: 1224 ft
Nearby Weather Stations

Elev 1224 ft 41.20 °N, 74.43 °W | Updated 3 minutes ago

Partly Cloudy
Partly Cloudy
71.1 °F
Feels Like 71.1 °F
N
5.8
Wind Variable Wind from West
Gusts 6.3 mph

Today
High -- | Low -- °F
--% Chance of Precip.
Yesterday
High -- | Low -- °F
Precip. -- in
6:23 AM 7:32 PM
Waning Gibbous, 96% visible
Pressure 30.05 in
Visibility 1.8 miles
Clouds Mostly Cloudy 12000 ft
Dew Point 68 °F
Humidity 94%
Rainfall Not available.
Snow Depth Not available.
UV 0 out of 12
Pollen 10.60 out of 12
Air Quality Not available.
Flu Activity Not available.
METAR KFWN 311100Z AUTO 00000KT 1 3/4SM BR BKN120 18/18 A3005 RMK AO2 T01830178
Pressure 30.05 in
Visibility 1.8 miles
Clouds Mostly Cloudy 12000 ft
Dew Point 68 °F
Humidity 94%
Rainfall Not available.
Snow Depth Not available.
UV 0 out of 12
Pollen 10.60 out of 12
Air Quality Not available.
Flu Activity Not available.
METAR KFWN 311100Z AUTO 00000KT 1 3/4SM BR BKN120 18/18 A3005 RMK AO2 T01830178

10-Day Weather Forecast

×

Almanac

Astronomy

Aug. 31, 2015 Rise Set
Actual Time
Civil Twilight
Nautical Twilight
Astronomical Twilight
Moon
Length of Visible Light
Length of Day
Tomorrow will be .
, % of the Moon is Illuminated

Today's Extremes

State Highs State Lows

Community

WunderPhotos

Upload Photos

1,851,219 photos uploaded!

WunderBlogs® & News

Nearby

Air Quality

  Air Quality AQ Index Pollutant
Not available.

Snow Depth

Station Depth Elevation

Earthquake Activity

City Distance Mag. Time & Date
Minimum magnitude displayed is 2.5.

Coastal Water Temperatures

Place Temperature

Stations

Nearby Weather Stations

Station Location Temp. Windchill Dew Point Humidity Wind Precip. Elev Updated Type